Time;durP1;ratioP1;P1;durP2;ratioP2;P2;SDS_P1;SDS_P2;PMS_P1;PMS_P2;Temp;Humidity;BMP_temperature;BMP_pressure;BME280_temperature;BME280_humidity;BME280_pressure;Samples;Min_cycle;Max_cycle;Signal;HPM_P1;HPM_P2
2022/12/22 03:26:43;;;;;;;9.47;8.47;;;;;;;-145.23;100.00;58621.06;5017380;28;20629;-55
2022/12/22 03:29:10;;;;;;;9.33;8.43;;;;;;;-145.23;100.00;58621.06;5011948;28;20237;-54
2022/12/22 03:31:37;;;;;;;8.93;8.03;;;;;;;-145.23;100.00;58621.06;5011083;28;20236;-56
2022/12/22 03:34:05;;;;;;;9.97;8.97;;;;;;;-145.23;100.00;58621.06;5024285;28;20224;-54
2022/12/22 03:36:32;;;;;;;9.47;8.57;;;;;;;-145.23;100.00;58621.06;5003052;28;20232;-54
2022/12/22 03:38:59;;;;;;;8.93;8.03;;;;;;;-145.23;100.00;58621.06;5001682;28;20225;-54
2022/12/22 03:47:06;;;;;;;9.27;8.37;;;;;;;-145.23;100.00;58621.06;4997600;28;20325;-55
2022/12/22 03:49:34;;;;;;;10.10;8.73;;;;;;;-145.23;100.00;58621.06;5016459;28;20398;-55
2022/12/22 03:52:01;;;;;;;9.70;8.70;;;;;;;-145.23;100.00;58621.06;5022415;28;20643;-54
2022/12/22 03:54:28;;;;;;;12.50;8.53;;;;;;;-145.23;100.00;58621.06;5024037;28;20650;-55
2022/12/22 03:56:55;;;;;;;10.80;9.80;;;;;;;-145.23;100.00;58621.06;5021776;28;20375;-55
2022/12/22 03:59:22;;;;;;;10.17;9.17;;;;;;;-145.23;100.00;58621.06;5024816;28;20233;-55
2022/12/22 04:01:51;;;;;;;10.23;9.17;;;;;;;-145.23;100.00;58621.06;5024741;28;20255;-55
2022/12/22 04:04:19;;;;;;;11.57;10.10;;;;;;;-145.23;100.00;58621.06;5022497;28;20233;-55
2022/12/22 04:06:48;;;;;;;11.53;9.93;;;;;;;-145.23;100.00;58621.06;5021064;28;21320;-54
2022/12/22 04:09:15;;;;;;;12.37;10.60;;;;;;;-145.23;100.00;58621.06;5023988;28;20240;-54
2022/12/22 04:14:26;;;;;;;11.50;10.40;;;;;;;-145.23;100.00;58621.06;5019711;28;20386;-54
2022/12/22 04:16:53;;;;;;;11.73;10.53;;;;;;;-145.23;100.00;58621.06;5022875;28;20684;-55
2022/12/22 04:19:20;;;;;;;10.47;9.37;;;;;;;-145.23;100.00;58621.06;5026126;28;20235;-55
2022/12/22 04:21:48;;;;;;;12.00;10.53;;;;;;;-145.23;100.00;58621.06;5020719;28;20232;-56
2022/12/22 04:24:15;;;;;;;13.83;10.03;;;;;;;-145.23;100.00;58621.06;5024557;28;20232;-54
2022/12/22 04:26:42;;;;;;;13.63;11.30;;;;;;;-145.23;100.00;58621.06;5025235;28;20236;-55
2022/12/22 04:29:09;;;;;;;11.07;9.97;;;;;;;-145.23;100.00;58621.06;5021288;28;20236;-54
2022/12/22 04:31:36;;;;;;;13.50;12.10;;;;;;;-145.23;100.00;58621.06;5023165;28;20243;-54
2022/12/22 04:34:03;;;;;;;12.37;11.13;;;;;;;-145.23;100.00;58621.06;5022646;28;20305;-55
2022/12/22 04:36:30;;;;;;;11.80;10.60;;;;;;;-145.23;100.00;58621.06;5020993;28;20228;-55
2022/12/22 04:38:58;;;;;;;12.17;10.97;;;;;;;-145.23;100.00;58621.06;5019975;28;20235;-54
2022/12/22 04:41:25;;;;;;;12.80;11.17;;;;;;;-145.23;100.00;58621.06;5023920;28;20336;-55
2022/12/22 04:43:51;;;;;;;12.20;10.67;;;;;;;-145.23;100.00;58621.06;5022377;28;21506;-54
2022/12/22 04:46:18;;;;;;;11.77;10.57;;;;;;;-145.23;100.00;58621.06;5023071;28;20236;-56
2022/12/22 04:48:45;;;;;;;13.93;11.23;;;;;;;-145.23;100.00;58621.06;5025031;28;20235;-55
2022/12/22 04:51:12;;;;;;;11.80;10.53;;;;;;;-145.23;100.00;58621.06;5013833;28;20251;-54
2022/12/22 04:53:39;;;;;;;13.30;11.20;;;;;;;-145.23;100.00;58621.06;5008174;28;20284;-54
2022/12/22 04:56:08;;;;;;;13.90;10.63;;;;;;;-145.23;100.00;58621.06;5012850;28;20243;-55
2022/12/22 04:58:35;;;;;;;11.70;10.50;;;;;;;-145.23;100.00;58621.06;5008554;28;20323;-54
2022/12/22 05:01:09;;;;;;;12.00;10.60;;;;;;;-145.23;100.00;58621.06;5010864;28;20233;-55
2022/12/22 05:03:36;;;;;;;12.07;10.77;;;;;;;-145.23;100.00;58621.06;5009025;28;20225;-54
2022/12/22 05:06:04;;;;;;;17.80;13.60;;;;;;;-145.23;100.00;58621.06;5005779;28;20726;-55
2022/12/22 05:08:30;;;;;;;15.37;12.43;;;;;;;-145.23;100.00;58621.06;5008924;28;20237;-55
2022/12/22 05:10:57;;;;;;;14.97;11.90;;;;;;;-145.23;100.00;58621.06;5008109;28;20291;-54
2022/12/22 05:13:25;;;;;;;14.57;12.03;;;;;;;-145.23;100.00;58621.06;5016323;28;20283;-55
2022/12/22 05:15:52;;;;;;;13.07;11.77;;;;;;;-145.23;100.00;58621.06;5021153;28;20232;-56
2022/12/22 05:18:19;;;;;;;13.20;11.80;;;;;;;-145.23;100.00;58621.06;5013911;28;20319;-53
2022/12/22 05:20:46;;;;;;;14.73;12.40;;;;;;;-145.23;100.00;58621.06;5013492;28;20283;-56
2022/12/22 05:23:13;;;;;;;13.67;12.27;;;;;;;-145.23;100.00;58621.06;5031625;28;20225;-55
2022/12/22 05:25:40;;;;;;;13.33;11.93;;;;;;;-145.23;100.00;58621.06;5021888;28;20255;-54
2022/12/22 05:28:07;;;;;;;14.40;12.90;;;;;;;-145.23;100.00;58621.06;5022542;28;20233;-54
2022/12/22 05:30:35;;;;;;;17.77;14.07;;;;;;;-145.23;100.00;58621.06;5014824;28;20657;-55
2022/12/22 05:33:02;;;;;;;14.63;13.13;;;;;;;-145.23;100.00;58621.06;5012170;28;20247;-55
2022/12/22 05:35:28;;;;;;;15.20;13.20;;;;;;;-145.23;100.00;58621.06;5010250;28;20256;-59
2022/12/22 05:37:55;;;;;;;14.03;12.53;;;;;;;-145.23;100.00;58621.06;5010164;28;20225;-54
2022/12/22 05:40:22;;;;;;;15.33;12.47;;;;;;;-145.23;100.00;58621.06;5017410;28;20224;-55
2022/12/22 05:42:49;;;;;;;15.83;12.83;;;;;;;-145.23;100.00;58621.06;5012967;28;20785;-55
2022/12/22 05:45:18;;;;;;;13.37;11.97;;;;;;;-145.23;100.00;58621.06;5015973;28;21022;-53
2022/12/22 05:47:47;;;;;;;14.43;12.97;;;;;;;-145.23;100.00;58621.06;5012068;28;20233;-55
2022/12/22 05:50:16;;;;;;;14.03;12.53;;;;;;;-145.23;100.00;58621.06;5012077;28;20255;-53
2022/12/22 05:52:43;;;;;;;17.00;13.13;;;;;;;-145.23;100.00;58621.06;5009019;28;20252;-54
2022/12/22 05:55:11;;;;;;;13.83;12.43;;;;;;;-145.23;100.00;58621.06;5009778;28;20785;-54
2022/12/22 05:57:38;;;;;;;15.53;13.23;;;;;;;-145.23;100.00;58621.06;5008640;28;20240;-55
2022/12/22 06:00:06;;;;;;;14.40;12.83;;;;;;;-145.23;100.00;58621.06;5009421;28;20249;-54
2022/12/22 06:02:33;;;;;;;14.23;12.73;;;;;;;-145.23;100.00;58621.06;5008277;28;20229;-57
2022/12/22 06:05:01;;;;;;;17.43;13.20;;;;;;;-145.23;100.00;58621.06;5008416;28;20241;-54
2022/12/22 06:07:28;;;;;;;14.70;12.80;;;;;;;-145.23;100.00;58621.06;5005575;28;20233;-54
2022/12/22 06:09:55;;;;;;;14.87;13.27;;;;;;;-145.23;100.00;58621.06;5005787;28;20241;-55
2022/12/22 06:12:22;;;;;;;14.03;12.50;;;;;;;-145.23;100.00;58621.06;5002386;28;20241;-53
2022/12/22 06:14:49;;;;;;;15.53;13.87;;;;;;;-145.23;100.00;58621.06;5002610;28;21023;-53
2022/12/22 06:17:16;;;;;;;13.87;12.47;;;;;;;-145.23;100.00;58621.06;5003541;28;20269;-54
2022/12/22 06:19:43;;;;;;;14.07;12.67;;;;;;;-145.23;100.00;58621.06;5022773;28;20235;-54
2022/12/22 06:22:12;;;;;;;14.40;12.93;;;;;;;-145.23;100.00;58621.06;5009144;28;20240;-54
2022/12/22 06:24:39;;;;;;;15.67;12.83;;;;;;;-145.23;100.00;58621.06;5014389;28;20241;-54
2022/12/22 06:27:05;;;;;;;14.10;12.53;;;;;;;-145.23;100.00;58621.06;5007543;28;20240;-54
2022/12/22 06:29:32;;;;;;;13.67;12.27;;;;;;;-145.23;100.00;58621.06;5006943;28;20236;-55
2022/12/22 06:31:59;;;;;;;14.07;12.67;;;;;;;-145.23;100.00;58621.06;5001244;28;20233;-55
2022/12/22 06:34:26;;;;;;;14.67;13.13;;;;;;;-145.23;100.00;58621.06;5007359;28;20232;-54
2022/12/22 06:36:53;;;;;;;13.50;12.10;;;;;;;-145.23;100.00;58621.06;5021103;28;20283;-58
2022/12/22 06:39:22;;;;;;;13.87;12.47;;;;;;;-145.23;100.00;58621.06;5007537;28;20588;-56
2022/12/22 06:44:33;;;;;;;14.03;12.37;;;;;;;-145.23;100.00;58621.06;5007126;28;20235;-54
2022/12/22 06:47:00;;;;;;;14.00;12.57;;;;;;;-145.23;100.00;58621.06;5010402;28;20233;-58
2022/12/22 06:49:27;;;;;;;14.27;12.73;;;;;;;-145.23;100.00;58621.06;5010266;28;20257;-55
2022/12/22 06:51:54;;;;;;;19.83;14.10;;;;;;;-145.23;100.00;58621.06;5006371;28;20260;-54
2022/12/22 06:54:22;;;;;;;14.10;12.13;;;;;;;-145.23;100.00;58621.06;5005304;28;20303;-54
2022/12/22 06:56:49;;;;;;;17.37;13.37;;;;;;;-145.23;100.00;58621.06;5003741;28;20241;-55
2022/12/22 06:59:17;;;;;;;16.27;13.90;;;;;;;-145.23;100.00;58621.06;5004563;28;20239;-56
2022/12/22 07:01:43;;;;;;;16.53;14.00;;;;;;;-145.23;100.00;58621.06;5009132;28;20244;-55
2022/12/22 07:04:15;;;;;;;14.33;12.73;;;;;;;-145.23;100.00;58621.06;5003429;28;20236;-55
2022/12/22 07:06:42;;;;;;;14.63;13.13;;;;;;;-145.23;100.00;58621.06;5005717;28;20291;-55
2022/12/22 07:09:09;;;;;;;15.97;14.27;;;;;;;-145.23;100.00;58621.06;5001821;28;20320;-54
2022/12/22 07:11:38;;;;;;;15.17;13.57;;;;;;;-145.23;100.00;58621.06;5001700;28;20259;-54
2022/12/22 07:14:04;;;;;;;15.90;11.90;;;;;;;-145.23;100.00;58621.06;5002058;28;20312;-54
2022/12/22 07:16:31;;;;;;;15.47;12.90;;;;;;;-145.23;100.00;58621.06;5000760;28;20229;-54
2022/12/22 07:18:58;;;;;;;16.43;13.83;;;;;;;-145.23;100.00;58621.06;4997612;28;20314;-56
2022/12/22 07:21:25;;;;;;;14.03;12.57;;;;;;;-145.23;100.00;58621.06;4999950;28;20229;-55
2022/12/22 07:23:52;;;;;;;13.80;12.00;;;;;;;-145.23;100.00;58621.06;5001399;28;20870;-54
2022/12/22 07:26:19;;;;;;;13.27;11.87;;;;;;;-145.23;100.00;58621.06;5002052;28;20237;-57
2022/12/22 07:28:47;;;;;;;13.77;12.27;;;;;;;-145.23;100.00;58621.06;5006890;28;20237;-54
2022/12/22 07:31:16;;;;;;;13.90;12.17;;;;;;;-145.23;100.00;58621.06;5007335;28;20232;-55
2022/12/22 07:33:43;;;;;;;15.93;12.87;;;;;;;-145.23;100.00;58621.06;5001262;28;20237;-54
2022/12/22 07:36:12;;;;;;;14.30;11.80;;;;;;;-145.23;100.00;58621.06;5001255;28;20237;-55
2022/12/22 07:38:44;;;;;;;13.77;11.43;;;;;;;-145.23;100.00;58621.06;4999270;28;20316;-55
2022/12/22 07:43:59;;;;;;;12.47;11.27;;;;;;;-145.23;100.00;58621.06;5007669;28;20701;-53
2022/12/22 07:46:29;;;;;;;15.50;12.60;;;;;;;-145.23;100.00;58621.06;5004870;28;20225;-55
2022/12/22 07:51:41;;;;;;;13.70;12.30;;;;;;;-145.23;100.00;58621.06;4997477;28;20248;-53
2022/12/22 07:54:09;;;;;;;13.40;11.23;;;;;;;-145.23;100.00;58621.06;5004416;28;20318;-53
2022/12/22 07:56:37;;;;;;;13.40;12.10;;;;;;;-145.23;100.00;58621.06;5000648;28;20240;-54
2022/12/22 07:59:05;;;;;;;13.37;11.97;;;;;;;-145.23;100.00;58621.06;5005087;28;20730;-53
2022/12/22 08:01:32;;;;;;;15.07;12.13;;;;;;;-145.23;100.00;58621.06;5004343;28;20337;-54
2022/12/22 08:03:59;;;;;;;15.77;13.00;;;;;;;-145.23;100.00;58621.06;5002909;28;20703;-54
2022/12/22 08:06:26;;;;;;;15.13;13.53;;;;;;;-145.23;100.00;58621.06;4998640;28;20234;-55
2022/12/22 08:08:53;;;;;;;14.13;12.63;;;;;;;-145.23;100.00;58621.06;5004151;28;20722;-54
2022/12/22 08:11:20;;;;;;;14.90;13.33;;;;;;;-145.23;100.00;58621.06;5010582;28;21330;-57
2022/12/22 08:13:48;;;;;;;14.50;12.37;;;;;;;-145.23;100.00;58621.06;5002632;28;20253;-53
2022/12/22 08:16:19;;;;;;;15.00;12.93;;;;;;;-145.23;100.00;58621.06;5011305;28;20227;-55
2022/12/22 08:18:46;;;;;;;13.20;11.83;;;;;;;-145.23;100.00;58621.06;5016437;28;20289;-54
2022/12/22 08:21:13;;;;;;;13.47;12.07;;;;;;;-145.23;100.00;58621.06;5019386;28;20228;-60
2022/12/22 08:23:39;;;;;;;15.10;13.50;;;;;;;-145.23;100.00;58621.06;5018099;28;20310;-54
2022/12/22 08:26:10;;;;;;;14.27;12.77;;;;;;;-145.23;100.00;58621.06;5022023;28;20887;-53
2022/12/22 08:28:42;;;;;;;14.83;12.07;;;;;;;-145.23;100.00;58621.06;5017593;28;20239;-54
2022/12/22 08:31:09;;;;;;;14.90;12.43;;;;;;;-145.23;100.00;58621.06;5021084;28;20243;-54
2022/12/22 08:33:37;;;;;;;13.70;12.13;;;;;;;-145.23;100.00;58621.06;5019660;28;20245;-55
2022/12/22 08:36:06;;;;;;;13.73;12.30;;;;;;;-145.23;100.00;58621.06;5021477;28;20224;-53
2022/12/22 08:38:33;;;;;;;14.93;12.37;;;;;;;-145.23;100.00;58621.06;5013375;28;20237;-54
2022/12/22 08:41:00;;;;;;;14.00;11.40;;;;;;;-145.23;100.00;58621.06;5019736;28;20249;-55
2022/12/22 08:43:27;;;;;;;14.10;12.60;;;;;;;-145.23;100.00;58621.06;5009778;28;20236;-54
2022/12/22 08:45:54;;;;;;;16.73;12.70;;;;;;;-145.23;100.00;58621.06;5025316;28;20228;-53
2022/12/22 08:48:21;;;;;;;12.80;11.50;;;;;;;-145.23;100.00;58621.06;5022331;28;20228;-55
2022/12/22 08:50:50;;;;;;;15.90;12.63;;;;;;;-145.23;100.00;58621.06;5020073;28;20249;-55
2022/12/22 08:53:17;;;;;;;15.53;13.60;;;;;;;-145.23;100.00;58621.06;5015226;28;20760;-54
2022/12/22 08:55:51;;;;;;;12.87;11.47;;;;;;;-145.23;100.00;58621.06;5019334;28;20229;-54
2022/12/22 08:58:17;;;;;;;13.27;11.87;;;;;;;-145.23;100.00;58621.06;5017909;28;20235;-53
2022/12/22 09:00:44;;;;;;;11.60;10.40;;;;;;;-145.23;100.00;58621.06;5004873;28;20231;-55
2022/12/22 09:03:11;;;;;;;16.63;12.97;;;;;;;-145.23;100.00;58621.06;5002243;28;20243;-54
2022/12/22 09:05:38;;;;;;;13.43;12.13;;;;;;;-145.23;100.00;58621.06;5001221;28;20248;-54
2022/12/22 09:08:06;;;;;;;12.83;11.40;;;;;;;-145.23;100.00;58621.06;5000554;28;20760;-55
2022/12/22 09:10:34;;;;;;;13.17;11.77;;;;;;;-145.23;100.00;58621.06;5000475;28;20247;-54
2022/12/22 09:13:01;;;;;;;13.30;11.30;;;;;;;-145.23;100.00;58621.06;5001927;28;20229;-55
2022/12/22 09:15:27;;;;;;;13.17;11.57;;;;;;;-145.23;100.00;58621.06;5003335;28;20241;-54
2022/12/22 09:17:54;;;;;;;13.13;10.83;;;;;;;-145.23;100.00;58621.06;4998626;28;20245;-55
2022/12/22 09:20:21;;;;;;;14.27;12.03;;;;;;;-145.23;100.00;58621.06;5003795;28;20243;-55
2022/12/22 09:22:48;;;;;;;13.30;11.90;;;;;;;-145.23;100.00;58621.06;5007360;28;20269;-56
2022/12/22 09:25:17;;;;;;;15.67;12.27;;;;;;;-145.23;100.00;58621.06;4998339;28;20248;-54
2022/12/22 09:27:44;;;;;;;14.47;11.23;;;;;;;-145.23;100.00;58621.06;5007143;28;20806;-55
2022/12/22 09:30:11;;;;;;;13.47;11.93;;;;;;;-145.23;100.00;58621.06;5013869;28;20236;-56
2022/12/22 09:32:38;;;;;;;14.23;12.30;;;;;;;-145.23;100.00;58621.06;5019952;28;20307;-58
2022/12/22 09:35:06;;;;;;;12.00;10.70;;;;;;;-145.23;100.00;58621.06;5025242;28;20229;-56
2022/12/22 09:37:33;;;;;;;12.57;10.67;;;;;;;-145.23;100.00;58621.06;5021516;28;20232;-54
2022/12/22 09:39:59;;;;;;;13.67;12.27;;;;;;;-145.23;100.00;58621.06;5021707;28;20224;-56
2022/12/22 09:42:28;;;;;;;13.87;11.83;;;;;;;-145.23;100.00;58621.06;5020685;28;20290;-55
2022/12/22 09:44:55;;;;;;;14.53;11.23;;;;;;;-145.23;100.00;58621.06;5024351;28;20236;-55
2022/12/22 09:47:26;;;;;;;14.60;11.23;;;;;;;-145.23;100.00;58621.06;5023379;28;20242;-54
2022/12/22 09:49:55;;;;;;;12.80;11.07;;;;;;;-145.23;100.00;58621.06;5024431;28;20228;-56
2022/12/22 09:52:25;;;;;;;16.43;12.03;;;;;;;-145.23;100.00;58621.06;5022031;28;20342;-54
2022/12/22 09:54:52;;;;;;;13.13;11.83;;;;;;;-145.23;100.00;58621.06;5023543;28;20780;-55
2022/12/22 09:57:19;;;;;;;12.90;11.60;;;;;;;-145.23;100.00;58621.06;5025698;28;20335;-56
2022/12/22 09:59:47;;;;;;;15.47;12.00;;;;;;;-145.23;100.00;58621.06;5025186;28;20232;-55
2022/12/22 10:02:24;;;;;;;17.90;10.80;;;;;;;-145.23;100.00;58621.06;5022182;28;20252;-54
2022/12/22 10:05:07;;;;;;;13.33;11.93;;;;;;;-145.23;100.00;58621.06;5014760;28;20295;-56
2022/12/22 10:07:35;;;;;;;12.80;11.33;;;;;;;-145.23;100.00;58621.06;5008559;28;20239;-55
2022/12/22 10:10:07;;;;;;;13.07;11.63;;;;;;;-145.23;100.00;58621.06;5014271;28;20225;-54
2022/12/22 10:12:33;;;;;;;16.43;12.23;;;;;;;-145.23;100.00;58621.06;5014031;28;20243;-58
2022/12/22 10:15:02;;;;;;;12.37;10.67;;;;;;;-145.23;100.00;58621.06;5005846;28;20322;-54
2022/12/22 10:17:30;;;;;;;14.07;12.60;;;;;;;-145.23;100.00;58621.06;5002643;28;20787;-54
2022/12/22 10:20:19;;;;;;;13.00;11.47;;;;;;;-145.23;100.00;58621.06;5009682;28;20225;-55
2022/12/22 10:22:49;;;;;;;15.17;12.93;;;;;;;-145.23;100.00;58621.06;5012396;28;20261;-55
2022/12/22 10:25:30;;;;;;;13.27;11.87;;;;;;;-145.23;100.00;58621.06;5008501;28;20751;-54
2022/12/22 10:27:57;;;;;;;13.93;11.00;;;;;;;-145.23;100.00;58621.06;5030926;28;20344;-54
2022/12/22 10:30:28;;;;;;;12.90;11.53;;;;;;;-145.23;100.00;58621.06;5023449;28;20236;-54
2022/12/22 10:33:02;;;;;;;13.80;10.20;;;;;;;-145.23;100.00;58621.06;5029676;28;20714;-54
2022/12/22 10:35:40;;;;;;;14.37;12.13;;;;;;;-145.23;100.00;58621.06;5026697;28;20237;-55
2022/12/22 10:38:14;;;;;;;12.97;11.67;;;;;;;-145.23;100.00;58621.06;5019281;28;20224;-54
2022/12/22 10:40:43;;;;;;;12.50;11.20;;;;;;;-145.23;100.00;58621.06;5016575;28;20375;-54
2022/12/22 10:43:10;;;;;;;12.67;11.37;;;;;;;-145.23;100.00;58621.06;4999495;28;20241;-54
2022/12/22 10:45:38;;;;;;;13.50;12.10;;;;;;;-145.23;100.00;58621.06;5011803;28;20225;-56
2022/12/22 10:48:06;;;;;;;13.10;11.80;;;;;;;-145.23;100.00;58621.06;5005217;28;20715;-57
2022/12/22 10:50:33;;;;;;;14.13;12.33;;;;;;;-145.23;100.00;58621.06;5005259;28;20645;-53
2022/12/22 10:53:02;;;;;;;13.30;11.90;;;;;;;-145.23;100.00;58621.06;4999809;28;20229;-54
2022/12/22 10:55:31;;;;;;;12.43;11.23;;;;;;;-145.23;100.00;58621.06;5003051;28;20255;-55
2022/12/22 10:58:13;;;;;;;13.87;12.40;;;;;;;-145.23;100.00;58621.06;5009819;28;20266;-53
2022/12/22 11:00:41;;;;;;;12.77;11.53;;;;;;;-145.23;100.00;58621.06;5009072;28;20236;-53
2022/12/22 11:03:13;;;;;;;13.87;12.13;;;;;;;-145.23;100.00;58621.06;5024469;28;20722;-54
2022/12/22 11:05:40;;;;;;;12.27;10.97;;;;;;;-145.23;100.00;58621.06;5023364;28;20304;-53
2022/12/22 11:08:16;;;;;;;13.63;12.07;;;;;;;-145.23;100.00;58621.06;5015018;28;20253;-55
2022/12/22 11:10:49;;;;;;;14.00;11.97;;;;;;;-145.23;100.00;58621.06;5016507;28;20311;-54
2022/12/22 11:13:24;;;;;;;13.07;11.23;;;;;;;-145.23;100.00;58621.06;5025796;28;20314;-54
2022/12/22 11:15:55;;;;;;;11.00;9.90;;;;;;;-145.23;100.00;58621.06;5018631;28;20330;-55
2022/12/22 11:18:37;;;;;;;13.70;11.57;;;;;;;-145.23;100.00;58621.06;5000618;28;20228;-56
2022/12/22 11:21:08;;;;;;;12.70;11.43;;;;;;;-145.23;100.00;58621.06;5002394;28;20890;-54
2022/12/22 11:23:40;;;;;;;15.13;12.47;;;;;;;-145.23;100.00;58621.06;5000840;28;20289;-52
2022/12/22 11:26:13;;;;;;;14.53;12.27;;;;;;;-145.23;100.00;58621.06;4999059;28;20245;-56
2022/12/22 11:28:55;;;;;;;12.80;11.50;;;;;;;-145.23;100.00;58621.06;4999685;28;20320;-53
2022/12/22 11:31:34;;;;;;;14.80;12.40;;;;;;;-145.23;100.00;58621.06;4998850;28;20248;-59
2022/12/22 11:34:09;;;;;;;14.83;13.10;;;;;;;-145.23;100.00;58621.06;5000430;28;20712;-54
2022/12/22 11:36:51;;;;;;;14.07;11.80;;;;;;;-145.23;100.00;58621.06;5003215;28;20279;-53
2022/12/22 11:39:24;;;;;;;12.30;11.10;;;;;;;-145.23;100.00;58621.06;5005739;28;20262;-54
2022/12/22 11:41:59;;;;;;;13.57;12.17;;;;;;;-145.23;100.00;58621.06;5002668;28;20751;-53
2022/12/22 11:44:37;;;;;;;14.57;11.83;;;;;;;-145.23;100.00;58621.06;5000603;28;20252;-55
2022/12/22 11:47:14;;;;;;;12.93;11.27;;;;;;;-145.23;100.00;58621.06;5001156;28;20247;-53
2022/12/22 11:50:08;;;;;;;13.57;12.17;;;;;;;-145.23;100.00;58621.06;5001025;28;20240;-53
2022/12/22 11:52:48;;;;;;;12.50;11.20;;;;;;;-145.23;100.00;58621.06;5018932;28;20224;-53
2022/12/22 11:55:21;;;;;;;12.33;11.20;;;;;;;-145.23;100.00;58621.06;5022321;28;20231;-55
2022/12/22 11:58:03;;;;;;;12.93;11.20;;;;;;;-145.23;100.00;58621.06;5023995;28;20256;-54
2022/12/22 12:00:34;;;;;;;12.50;11.33;;;;;;;-145.23;100.00;58621.06;5000614;28;20273;-54
2022/12/22 12:03:33;;;;;;;11.93;10.60;;;;;;;-145.23;100.00;58621.06;4995889;28;20731;-53
2022/12/22 12:06:28;;;;;;;11.57;10.40;;;;;;;-145.23;100.00;58621.06;5006242;28;20240;-54
2022/12/22 12:09:11;;;;;;;11.10;10.00;;;;;;;-145.23;100.00;58621.06;4966978;28;20238;-53
2022/12/22 12:11:43;;;;;;;11.10;10.07;;;;;;;-145.23;100.00;58621.06;5003654;28;20240;-55
2022/12/22 12:14:17;;;;;;;12.37;11.07;;;;;;;-145.23;100.00;58621.06;5001518;28;20229;-54
2022/12/22 12:16:51;;;;;;;10.13;9.23;;;;;;;-145.23;100.00;58621.06;5006795;28;20244;-54
2022/12/22 12:19:42;;;;;;;11.23;10.13;;;;;;;-145.23;100.00;58621.06;5018469;28;20237;-53
2022/12/22 12:22:14;;;;;;;10.83;9.07;;;;;;;-145.23;100.00;58621.06;4998502;28;20221;-55
2022/12/22 12:24:49;;;;;;;11.77;10.53;;;;;;;-145.23;100.00;58621.06;5012675;28;20321;-54
2022/12/22 12:27:28;;;;;;;13.00;11.60;;;;;;;-145.23;100.00;58621.06;5014569;28;20232;-55
2022/12/22 12:30:02;;;;;;;11.60;10.40;;;;;;;-145.23;100.00;58621.06;5014082;28;20274;-55
2022/12/22 12:32:33;;;;;;;11.13;9.97;;;;;;;-145.23;100.00;58621.06;5002686;28;20319;-60
2022/12/22 12:35:05;;;;;;;12.07;10.47;;;;;;;-145.23;100.00;58621.06;5005798;28;20228;-54
2022/12/22 12:37:37;;;;;;;13.17;10.77;;;;;;;-145.23;100.00;58621.06;5011914;28;20232;-54
2022/12/22 12:40:11;;;;;;;10.40;9.40;;;;;;;-145.23;100.00;58621.06;5003190;28;20244;-55
2022/12/22 12:42:39;;;;;;;10.67;9.57;;;;;;;-145.23;100.00;58621.06;5005583;28;20237;-55
2022/12/22 12:45:33;;;;;;;10.20;9.20;;;;;;;-145.23;100.00;58621.06;5010036;28;20228;-61
2022/12/22 12:48:33;;;;;;;9.63;8.63;;;;;;;-145.23;100.00;58621.06;5015899;28;20307;-55
2022/12/22 12:51:01;;;;;;;9.53;8.63;;;;;;;-145.23;100.00;58621.06;4999120;28;20708;-55
2022/12/22 12:53:29;;;;;;;9.43;8.43;;;;;;;-145.23;100.00;58621.06;5001970;28;20307;-54
2022/12/22 12:56:01;;;;;;;10.80;9.60;;;;;;;-145.23;100.00;58621.06;5003532;28;20241;-55
2022/12/22 12:58:54;;;;;;;9.67;8.73;;;;;;;-145.23;100.00;58621.06;5000135;28;20232;-55
2022/12/22 13:01:55;;;;;;;9.17;8.27;;;;;;;-145.23;100.00;58621.06;5001548;28;20233;-55
2022/12/22 13:05:09;;;;;;;11.07;9.97;;;;;;;-145.23;100.00;58621.06;4987113;28;20626;-55
2022/12/22 13:08:13;;;;;;;9.27;7.60;;;;;;;-145.23;100.00;58621.06;4999535;28;20247;-53
2022/12/22 13:10:46;;;;;;;8.50;7.63;;;;;;;-145.23;100.00;58621.06;5004922;28;20606;-54
2022/12/22 13:13:45;;;;;;;9.03;8.13;;;;;;;-145.23;100.00;58621.06;4997423;28;20248;-55
2022/12/22 13:16:35;;;;;;;7.87;7.10;;;;;;;-145.23;100.00;58621.06;5005835;28;26113;-55
2022/12/22 13:19:13;;;;;;;10.43;7.70;;;;;;;-145.23;100.00;58621.06;5014479;28;20228;-55
2022/12/22 13:21:43;;;;;;;6.77;6.23;;;;;;;-145.23;100.00;58621.06;5019296;28;20274;-56
2022/12/22 13:24:30;;;;;;;7.30;6.67;;;;;;;-145.23;100.00;58621.06;5016664;28;20279;-55
2022/12/22 13:27:01;;;;;;;6.47;5.83;;;;;;;-145.23;100.00;58621.06;5020819;28;20272;-54
2022/12/22 13:29:36;;;;;;;7.97;6.63;;;;;;;-145.23;100.00;58621.06;5024714;28;20231;-54
2022/12/22 13:32:12;;;;;;;8.00;7.20;;;;;;;-145.23;100.00;58621.06;5013625;28;20903;-55
2022/12/22 13:34:44;;;;;;;6.73;6.20;;;;;;;-145.23;100.00;58621.06;5004973;28;20232;-54
2022/12/22 13:37:18;;;;;;;7.50;6.80;;;;;;;-145.23;100.00;58621.06;5006085;28;20237;-54
2022/12/22 13:40:07;;;;;;;7.47;6.73;;;;;;;-145.23;100.00;58621.06;5003005;28;20271;-53
2022/12/22 13:42:36;;;;;;;9.17;6.70;;;;;;;-145.23;100.00;58621.06;5004840;28;20728;-55
2022/12/22 13:45:04;;;;;;;6.83;6.13;;;;;;;-145.23;100.00;58621.06;5003993;28;20233;-54
2022/12/22 13:47:30;;;;;;;9.53;7.33;;;;;;;-145.23;100.00;58621.06;5006364;28;20284;-54
2022/12/22 13:49:58;;;;;;;7.43;6.73;;;;;;;-145.23;100.00;58621.06;5007714;28;20279;-55
2022/12/22 13:52:25;;;;;;;7.50;6.70;;;;;;;-145.23;100.00;58621.06;4999641;28;20300;-54
2022/12/22 13:54:53;;;;;;;8.13;7.43;;;;;;;-145.23;100.00;58621.06;5006483;28;20242;-58
2022/12/22 13:57:22;;;;;;;7.50;6.80;;;;;;;-145.23;100.00;58621.06;5009549;28;20241;-54
2022/12/22 13:59:50;;;;;;;7.50;6.83;;;;;;;-145.23;100.00;58621.06;5024706;28;20290;-54
2022/12/22 14:02:19;;;;;;;7.57;6.77;;;;;;;-145.23;100.00;58621.06;5024957;28;20723;-56
2022/12/22 14:05:03;;;;;;;7.07;6.37;;;;;;;-145.23;100.00;58621.06;5021719;28;20236;-55
2022/12/22 14:07:30;;;;;;;6.60;6.00;;;;;;;-145.23;100.00;58621.06;5003811;28;20237;-56
2022/12/22 14:09:57;;;;;;;7.13;6.57;;;;;;;-145.23;100.00;58621.06;5001617;28;20233;-55
2022/12/22 14:12:27;;;;;;;7.30;6.63;;;;;;;-145.23;100.00;58621.06;5002425;28;20269;-55
2022/12/22 14:14:55;;;;;;;7.27;6.57;;;;;;;-145.23;100.00;58621.06;5004979;28;20279;-54
2022/12/22 14:17:24;;;;;;;7.60;6.90;;;;;;;-145.23;100.00;58621.06;5005350;28;20279;-54
2022/12/22 14:19:54;;;;;;;6.43;5.83;;;;;;;-145.23;100.00;58621.06;5007662;28;20288;-54
2022/12/22 14:22:22;;;;;;;8.17;6.57;;;;;;;-145.23;100.00;58621.06;5011269;28;21101;-54
2022/12/22 14:24:54;;;;;;;8.57;6.83;;;;;;;-145.23;100.00;58621.06;5008155;28;20446;-54
2022/12/22 14:27:32;;;;;;;7.00;6.40;;;;;;;-145.23;100.00;58621.06;5018971;28;20694;-55
2022/12/22 14:30:00;;;;;;;7.47;6.77;;;;;;;-145.23;100.00;58621.06;5018326;28;20217;-55
2022/12/22 14:32:39;;;;;;;8.63;7.80;;;;;;;-145.23;100.00;58621.06;5016816;28;20241;-54
2022/12/22 14:35:16;;;;;;;8.63;7.83;;;;;;;-145.23;100.00;58621.06;5019767;28;20306;-55
2022/12/22 14:37:43;;;;;;;9.13;7.40;;;;;;;-145.23;100.00;58621.06;5029328;28;20236;-55
2022/12/22 14:40:16;;;;;;;8.93;8.13;;;;;;;-145.23;100.00;58621.06;5028853;28;20240;-54
2022/12/22 14:42:44;;;;;;;9.20;8.40;;;;;;;-145.23;100.00;58621.06;5028560;28;20298;-56
2022/12/22 14:45:15;;;;;;;11.17;8.80;;;;;;;-145.23;100.00;58621.06;5030019;28;20228;-55
2022/12/22 14:47:41;;;;;;;8.13;7.23;;;;;;;-145.23;100.00;58621.06;5022720;28;20920;-54
2022/12/22 14:50:16;;;;;;;6.27;5.67;;;;;;;-145.23;100.00;58621.06;5020306;28;20230;-54
2022/12/22 14:52:46;;;;;;;6.90;6.30;;;;;;;-145.23;100.00;58621.06;5023726;28;20248;-54
2022/12/22 14:55:24;;;;;;;8.37;7.57;;;;;;;-145.23;100.00;58621.06;5019147;28;20283;-56